Time;durP1;ratioP1;P1;durP2;ratioP2;P2;SDS_P1;SDS_P2;PMS_P1;PMS_P2;Temp;Humidity;BMP_temperature;BMP_pressure;BME280_temperature;BME280_humidity;BME280_pressure;Samples;Min_cycle;Max_cycle;Signal;HPM_P1;HPM_P2
2022/11/15 00:01:26;;;;;;;53.58;36.13;;;256.70;2252.80;;;;;;5132845;27;20109;-64
2022/11/15 00:03:52;;;;;;;178.02;100.97;;;256.70;2252.80;;;;;;5132931;27;20035;-63
2022/11/15 00:06:18;;;;;;;167.30;102.35;;;256.60;2252.80;;;;;;5132216;27;20640;-62
2022/11/15 00:08:43;;;;;;;65.38;43.63;;;256.70;2252.80;;;;;;5132600;27;20038;-66
2022/11/15 00:11:12;;;;;;;57.58;39.50;;;256.70;2252.80;;;;;;5132833;27;20469;-63
2022/11/15 00:13:37;;;;;;;88.80;55.97;;;256.90;2252.80;;;;;;5132588;27;20026;-65
2022/11/15 00:16:03;;;;;;;63.47;40.50;;;256.90;2252.80;;;;;;5135006;27;20016;-67
2022/11/15 00:18:30;;;;;;;56.10;36.97;;;281.60;2278.40;;;;;;5137711;27;20038;-62
2022/11/15 00:21:02;;;;;;;52.70;38.80;;;256.90;2252.80;;;;;;5132398;27;20023;-61
2022/11/15 00:23:28;;;;;;;57.50;38.95;;;256.90;2252.80;;;;;;5132188;27;20031;-61
2022/11/15 00:25:57;;;;;;;50.88;35.95;;;256.80;2252.80;;;;;;5132536;27;20522;-63
2022/11/15 00:28:23;;;;;;;49.92;35.38;;;256.80;2252.80;;;;;;5132468;27;20075;-61
2022/11/15 00:30:49;;;;;;;48.20;33.10;;;256.60;2252.80;;;;;;5133536;27;20472;-61
2022/11/15 00:33:15;;;;;;;56.85;39.97;;;256.40;2252.80;;;;;;5133942;27;20038;-62
2022/11/15 00:35:41;;;;;;;65.03;43.17;;;256.20;2252.80;;;;;;5135327;27;20046;-61
2022/11/15 00:38:06;;;;;;;56.50;38.85;;;256.00;2252.80;;;;;;5149354;27;20025;-61
2022/11/15 00:40:32;;;;;;;53.40;39.00;;;231.30;2252.80;;;;;;5133375;27;20026;-60
2022/11/15 00:42:58;;;;;;;52.20;36.90;;;231.30;2252.80;;;;;;5132992;27;20047;-62
2022/11/15 00:45:24;;;;;;;132.70;80.95;;;256.10;2252.80;;;;;;5139167;27;20027;-62
2022/11/15 00:47:50;;;;;;;66.53;44.53;;;256.20;2252.80;;;;;;5132925;27;20385;-61
2022/11/15 00:50:16;;;;;;;76.80;47.55;;;256.30;2252.80;;;;;;5132986;27;20084;-62
2022/11/15 00:52:42;;;;;;;65.90;43.30;;;256.40;2252.80;;;;;;5132805;27;20372;-62
2022/11/15 00:55:16;;;;;;;68.43;45.80;;;256.40;2252.80;;;;;;5132647;27;20066;-62
2022/11/15 00:57:42;;;;;;;68.22;46.88;;;256.40;2252.80;;;;;;5133118;27;20042;-60
2022/11/15 01:00:08;;;;;;;63.70;45.58;;;256.30;2252.80;;;;;;5136182;27;20492;-60
2022/11/15 01:02:34;;;;;;;124.28;79.65;;;256.30;2252.80;;;;;;5143639;27;20026;-62
2022/11/15 01:04:59;;;;;;;68.40;44.50;;;256.40;2252.80;;;;;;5143210;27;20015;-60
2022/11/15 01:07:25;;;;;;;63.95;43.28;;;256.40;2252.80;;;;;;5141252;27;20055;-63
2022/11/15 01:09:51;;;;;;;59.92;43.22;;;256.40;2252.80;;;;;;5143231;27;20506;-62
2022/11/15 01:12:16;;;;;;;61.83;41.03;;;256.50;2252.80;;;;;;5142895;27;20027;-62
2022/11/15 01:14:42;;;;;;;69.53;44.72;;;256.50;2252.80;;;;;;5142523;27;20023;-61
2022/11/15 01:17:08;;;;;;;69.03;48.08;;;256.50;2252.80;;;;;;5143737;27;20413;-61
2022/11/15 01:19:33;;;;;;;86.28;54.22;;;256.50;2252.80;;;;;;5142308;27;20027;-61
2022/11/15 01:21:59;;;;;;;80.05;53.83;;;256.50;2252.80;;;;;;5142511;27;20046;-61
2022/11/15 01:24:25;;;;;;;79.15;50.28;;;256.70;2252.80;;;;;;5143463;27;20042;-62
2022/11/15 01:26:51;;;;;;;72.78;54.80;;;256.70;2252.80;;;;;;5138147;27;20015;-62
2022/11/15 01:29:17;;;;;;;68.93;51.17;;;256.80;2252.80;;;;;;5132685;27;20030;-61
2022/11/15 01:31:42;;;;;;;85.30;56.97;;;256.90;2252.80;;;;;;5132885;27;20114;-62
2022/11/15 01:34:08;;;;;;;73.95;50.28;;;281.60;2278.40;;;;;;5132459;27;20667;-62
2022/11/15 01:36:33;;;;;;;69.10;47.45;;;281.70;2278.40;;;;;;5132584;27;20020;-62
2022/11/15 01:39:00;;;;;;;71.00;51.13;;;281.70;2278.40;;;;;;5132208;27;20038;-62
2022/11/15 01:41:28;;;;;;;80.47;54.83;;;281.80;2278.40;;;;;;5132780;27;20023;-62
2022/11/15 01:43:57;;;;;;;74.18;50.08;;;281.80;2278.40;;;;;;5132458;27;20043;-62
2022/11/15 01:46:30;;;;;;;77.53;52.78;;;281.70;2278.40;;;;;;5132524;27;20026;-62
2022/11/15 01:49:00;;;;;;;87.38;53.85;;;281.70;2278.40;;;;;;5132510;27;20031;-63
2022/11/15 01:51:28;;;;;;;68.78;48.42;;;281.70;2278.40;;;;;;5132335;27;20054;-62
2022/11/15 01:53:57;;;;;;;60.50;44.75;;;281.80;2278.40;;;;;;5113914;27;20042;-63
2022/11/15 01:56:27;;;;;;;72.75;48.03;;;256.90;2252.80;;;;;;5132303;27;20408;-62
2022/11/15 01:58:56;;;;;;;100.28;68.35;;;256.80;2252.80;;;;;;5132329;27;20029;-62
2022/11/15 02:01:24;;;;;;;112.30;75.07;;;256.70;2252.80;;;;;;5132286;27;20354;-62
2022/11/15 02:03:58;;;;;;;137.82;92.13;;;256.70;2252.80;;;;;;5131893;27;20093;-61
2022/11/15 02:06:24;;;;;;;128.43;86.75;;;256.70;2252.80;;;;;;5132087;27;20031;-61
2022/11/15 02:08:50;;;;;;;111.57;75.85;;;256.90;2252.80;;;;;;5131865;27;20083;-61
2022/11/15 02:11:16;;;;;;;105.90;71.88;;;256.90;2252.80;;;;;;5131838;27;20031;-62
2022/11/15 02:13:43;;;;;;;113.05;72.78;;;256.90;2252.80;;;;;;5131887;27;20081;-62
2022/11/15 02:16:24;;;;;;;103.32;73.63;;;256.70;2252.80;;;;;;5131740;27;20015;-61
2022/11/15 02:19:02;;;;;;;100.38;66.88;;;256.70;2252.80;;;;;;5131341;27;20537;-62
2022/11/15 02:21:49;;;;;;;101.30;69.47;;;256.60;2252.80;;;;;;5131831;27;20042;-61
2022/11/15 02:24:20;;;;;;;100.97;71.03;;;256.70;2252.80;;;;;;5131876;27;20114;-61
2022/11/15 02:27:20;;;;;;;100.50;69.05;;;256.80;2252.80;;;;;;5131549;27;20012;-62
2022/11/15 02:30:21;;;;;;;103.38;69.93;;;256.90;2252.80;;;;;;5131303;27;20058;-62
2022/11/15 02:33:28;;;;;;;106.10;71.93;;;256.90;2252.80;;;;;;5131311;27;20023;-61
2022/11/15 02:36:02;;;;;;;94.80;66.63;;;256.90;2252.80;;;;;;5127417;27;20035;-62
2022/11/15 02:38:58;;;;;;;95.38;65.53;;;256.90;2252.80;;;;;;5131370;27;20023;-62
2022/11/15 02:43:56;;;;;;;96.70;64.60;;;281.60;2278.40;;;;;;5131789;27;20058;-61
2022/11/15 02:44:53;;;;;;;90.57;62.33;;;281.60;2278.40;;;;;;5048167;28;20045;-62
2022/11/15 02:47:19;;;;;;;100.63;65.70;;;281.70;2278.40;;;;;;5047919;28;20586;-63
2022/11/15 02:49:48;;;;;;;89.65;64.63;;;281.70;2278.40;;;;;;5047852;28;20036;-62
2022/11/15 02:52:19;;;;;;;101.40;67.80;;;281.80;2278.40;;;;;;5048025;28;20028;-61
2022/11/15 02:54:59;;;;;;;96.45;68.88;;;281.70;2278.40;;;;;;5047833;28;20037;-65
2022/11/15 02:57:51;;;;;;;104.10;75.30;;;281.70;2278.40;;;;;;5048398;28;20048;-62
2022/11/15 03:00:20;;;;;;;100.57;72.57;;;281.80;2278.40;;;;;;5047648;28;20111;-60
2022/11/15 03:02:49;;;;;;;103.63;74.65;;;281.80;2278.40;;;;;;5047623;28;20025;-61
2022/11/15 03:05:42;;;;;;;135.02;90.18;;;281.70;2278.40;;;;;;5047678;28;20032;-61
2022/11/15 03:08:13;;;;;;;137.90;91.00;;;281.70;2278.40;;;;;;5047349;28;20041;-62
2022/11/15 03:11:04;;;;;;;145.93;95.68;;;281.60;2278.40;;;;;;5047297;28;20117;-62
2022/11/15 03:13:38;;;;;;;134.48;91.28;;;281.60;2278.40;;;;;;5047637;28;20021;-62
2022/11/15 03:16:10;;;;;;;146.77;95.00;;;256.80;2252.80;;;;;;5047877;28;20029;-62
2022/11/15 03:18:41;;;;;;;129.75;88.82;;;256.70;2252.80;;;;;;5047509;28;20021;-62
2022/11/15 03:21:11;;;;;;;126.05;83.88;;;256.90;2252.80;;;;;;5086028;28;20109;-61
2022/11/15 03:23:38;;;;;;;128.55;85.72;;;256.90;2252.80;;;;;;5130761;28;20031;-62
2022/11/15 03:26:08;;;;;;;107.07;73.97;;;281.60;2278.40;;;;;;5130692;28;20015;-61
2022/11/15 03:28:48;;;;;;;113.45;84.28;;;281.70;2278.40;;;;;;5130885;28;20067;-60
2022/11/15 03:34:04;;;;;;;121.43;83.63;;;281.60;2278.40;;;;;;5135369;27;20073;-61
2022/11/15 03:36:32;;;;;;;128.15;84.22;;;256.90;2252.80;;;;;;5135118;27;20117;-62
2022/11/15 03:39:04;;;;;;;121.85;86.40;;;256.80;2252.80;;;;;;5134531;27;20019;-62
2022/11/15 03:41:55;;;;;;;167.52;107.55;;;256.70;2252.80;;;;;;5135133;27;20027;-61
2022/11/15 03:44:46;;;;;;;138.50;95.35;;;256.60;2252.80;;;;;;5134556;27;20157;-61
2022/11/15 03:47:20;;;;;;;134.23;94.82;;;256.80;2252.80;;;;;;5134709;27;20023;-61
2022/11/15 03:49:56;;;;;;;134.18;92.20;;;256.90;2252.80;;;;;;5134847;27;20102;-62
2022/11/15 03:52:22;;;;;;;141.38;93.15;;;281.60;2278.40;;;;;;5135000;27;20015;-60
2022/11/15 03:54:54;;;;;;;126.47;88.30;;;281.70;2278.40;;;;;;5134496;27;20023;-61
2022/11/15 03:57:21;;;;;;;127.00;88.47;;;281.60;2278.40;;;;;;5134562;27;20019;-61
2022/11/15 03:59:46;;;;;;;129.80;90.40;;;281.70;2278.40;;;;;;5134259;27;20034;-62
2022/11/15 04:02:12;;;;;;;130.00;88.60;;;281.70;2278.40;;;;;;5134653;27;20015;-60
2022/11/15 04:04:38;;;;;;;121.72;86.55;;;281.70;2278.40;;;;;;5134137;27;20031;-61
2022/11/15 04:07:04;;;;;;;121.13;85.13;;;281.80;2278.40;;;;;;5134395;27;20031;-61
2022/11/15 04:09:30;;;;;;;143.30;96.03;;;281.90;2278.40;;;;;;5134035;27;20031;-61
2022/11/15 04:11:56;;;;;;;146.38;96.57;;;281.90;2278.40;;;;;;5134144;27;20030;-62
2022/11/15 04:14:21;;;;;;;145.32;98.63;;;281.60;2278.40;;;;;;5134207;27;20106;-62
2022/11/15 04:16:47;;;;;;;138.93;98.68;;;256.90;1971.20;;;;;;5133990;27;20373;-62
2022/11/15 04:24:41;;;;;;;145.80;100.78;;;256.60;2252.80;;;;;;5134086;27;20042;-62
2022/11/15 04:27:07;;;;;;;144.90;97.63;;;256.50;2252.80;;;;;;5133839;27;20019;-62
2022/11/15 04:29:35;;;;;;;149.20;100.72;;;256.50;2252.80;;;;;;5134325;27;20088;-62
2022/11/15 04:32:06;;;;;;;136.85;94.32;;;256.40;2252.80;;;;;;5134222;27;20031;-62
2022/11/15 04:34:32;;;;;;;136.15;95.43;;;256.50;2252.80;;;;;;5133935;27;20027;-62
2022/11/15 04:37:14;;;;;;;144.13;98.97;;;256.60;2252.80;;;;;;5133708;27;20027;-62
2022/11/15 04:39:40;;;;;;;247.05;149.50;;;256.70;2252.80;;;;;;5133469;27;20038;-61
2022/11/15 04:42:07;;;;;;;214.68;144.00;;;256.50;2252.80;;;;;;5133153;27;20026;-63
2022/11/15 04:44:33;;;;;;;190.75;131.18;;;256.20;2252.80;;;;;;5133757;27;20035;-62
2022/11/15 04:46:58;;;;;;;185.15;139.25;;;256.20;2252.80;;;;;;5133322;27;20093;-62
2022/11/15 04:49:24;;;;;;;186.60;135.20;;;256.30;2252.80;;;;;;5133802;27;20031;-61
2022/11/15 04:51:50;;;;;;;179.43;125.03;;;256.40;2227.20;;;;;;5133438;27;20038;-62
2022/11/15 04:54:16;;;;;;;205.23;133.63;;;256.20;2252.80;;;;;;5133211;27;20115;-62
2022/11/15 04:56:42;;;;;;;204.43;137.07;;;256.00;2252.80;;;;;;5133364;27;20038;-61
2022/11/15 04:59:08;;;;;;;213.50;138.48;;;256.00;2252.80;;;;;;5133391;27;20023;-62
2022/11/15 05:01:33;;;;;;;194.73;131.43;;;256.20;2252.80;;;;;;5133518;27;20500;-62
2022/11/15 05:06:43;;;;;;;169.20;117.85;;;231.30;2252.80;;;;;;5133681;27;20479;-61
2022/11/15 05:09:09;;;;;;;149.05;101.53;;;256.00;2252.80;;;;;;5132855;27;20023;-61
2022/11/15 05:11:35;;;;;;;171.45;114.82;;;256.10;2252.80;;;;;;5133112;27;20495;-61
2022/11/15 05:14:00;;;;;;;159.35;112.38;;;256.20;2252.80;;;;;;5133372;27;20026;-62
2022/11/15 05:16:26;;;;;;;166.43;111.50;;;256.30;2252.80;;;;;;5133061;27;20019;-62
2022/11/15 05:18:53;;;;;;;168.15;105.18;;;256.50;2252.80;;;;;;5133390;27;20113;-64
2022/11/15 05:21:19;;;;;;;147.88;104.20;;;256.30;2150.40;;;;;;5132942;27;20023;-63
2022/11/15 05:23:45;;;;;;;161.32;105.28;;;256.40;2252.80;;;;;;5132936;27;20046;-63
2022/11/15 05:26:11;;;;;;;153.23;105.38;;;256.50;2252.80;;;;;;5133132;27;20094;-61
2022/11/15 05:28:37;;;;;;;155.23;104.32;;;256.60;2252.80;;;;;;5132621;27;20090;-61
2022/11/15 05:31:05;;;;;;;156.20;104.25;;;256.50;2099.20;;;;;;5132862;27;20019;-61
2022/11/15 05:33:33;;;;;;;162.57;111.28;;;256.50;2252.80;;;;;;5132853;27;20412;-61
2022/11/15 05:36:21;;;;;;;170.43;118.88;;;256.50;2252.80;;;;;;5132611;27;20457;-62
2022/11/15 05:38:48;;;;;;;164.95;122.45;;;256.60;2252.80;;;;;;5132515;27;20041;-62
2022/11/15 05:41:16;;;;;;;170.07;115.47;;;256.60;2252.80;;;;;;5132534;27;20023;-61
2022/11/15 05:43:43;;;;;;;173.93;125.38;;;256.60;2252.80;;;;;;5132434;27;20055;-61
2022/11/15 05:46:09;;;;;;;180.40;125.03;;;256.70;2252.80;;;;;;5142857;27;20023;-62
2022/11/15 05:48:37;;;;;;;166.32;117.45;;;256.50;2252.80;;;;;;5153224;27;20034;-62
2022/11/15 05:51:04;;;;;;;164.43;117.45;;;256.40;2150.40;;;;;;5152990;27;20022;-60
2022/11/15 05:53:31;;;;;;;175.68;122.97;;;256.50;2252.80;;;;;;5152883;27;20384;-61
2022/11/15 05:55:57;;;;;;;170.73;118.95;;;256.50;2252.80;;;;;;5152641;27;20095;-62
2022/11/15 05:58:22;;;;;;;196.70;130.18;;;256.60;2252.80;;;;;;5153203;27;20050;-61
2022/11/15 06:00:48;;;;;;;173.35;118.05;;;256.50;2252.80;;;;;;5152733;27;20452;-64
2022/11/15 06:03:14;;;;;;;183.20;125.35;;;256.40;2252.80;;;;;;5152853;27;20086;-61
2022/11/15 06:05:40;;;;;;;186.30;129.23;;;256.30;2201.60;;;;;;5152666;27;20057;-61
2022/11/15 06:08:06;;;;;;;202.88;129.23;;;256.30;2252.80;;;;;;5152629;27;20101;-62
2022/11/15 06:10:32;;;;;;;235.88;142.82;;;256.20;2252.80;;;;;;5152593;27;20428;-61
2022/11/15 06:12:59;;;;;;;206.98;135.55;;;256.20;2252.80;;;;;;5152651;27;20030;-61
2022/11/15 06:15:25;;;;;;;167.93;122.55;;;256.20;2252.80;;;;;;5133739;27;20027;-61
2022/11/15 06:17:51;;;;;;;189.25;128.20;;;256.40;2252.80;;;;;;5152402;27;20517;-61
2022/11/15 06:20:17;;;;;;;175.63;127.00;;;256.50;2252.80;;;;;;5152394;27;20023;-62
2022/11/15 06:22:43;;;;;;;190.93;132.15;;;256.60;2252.80;;;;;;5152441;27;20079;-61
2022/11/15 06:25:09;;;;;;;182.48;132.48;;;256.60;2252.80;;;;;;5152358;27;20069;-61
2022/11/15 06:27:34;;;;;;;232.77;163.60;;;256.90;2124.80;;;;;;5152464;27;20226;-61
2022/11/15 06:30:00;;;;;;;174.32;118.90;;;256.90;2252.80;;;;;;5152221;27;20022;-61
2022/11/15 06:32:26;;;;;;;159.27;113.97;;;256.90;2073.60;;;;;;5152358;27;20147;-60
2022/11/15 06:34:52;;;;;;;172.98;122.20;;;281.60;2278.40;;;;;;5152301;27;20026;-60
2022/11/15 06:37:17;;;;;;;178.90;127.45;;;281.70;2278.40;;;;;;5152171;27;20022;-61
2022/11/15 06:39:44;;;;;;;200.63;131.82;;;281.70;2278.40;;;;;;5152140;27;20509;-61
2022/11/15 06:42:10;;;;;;;196.82;128.55;;;256.90;2073.60;;;;;;5151523;27;20047;-60
2022/11/15 06:44:36;;;;;;;191.60;132.15;;;256.70;2252.80;;;;;;5151853;27;20035;-60
2022/11/15 06:47:01;;;;;;;207.68;135.07;;;256.80;2252.80;;;;;;5152090;27;20019;-62
2022/11/15 06:49:27;;;;;;;193.20;121.45;;;256.90;2252.80;;;;;;5152203;27;20422;-64
2022/11/15 06:51:53;;;;;;;182.32;121.88;;;256.90;2252.80;;;;;;5152096;27;20029;-69
2022/11/15 06:54:18;;;;;;;181.35;124.50;;;256.90;2252.80;;;;;;5151683;27;20027;-60
2022/11/15 06:56:44;;;;;;;167.38;114.78;;;281.70;2252.80;;;;;;5151973;27;20441;-64
2022/11/15 06:59:09;;;;;;;166.07;112.53;;;281.80;2278.40;;;;;;5151571;27;20037;-64
2022/11/15 07:01:35;;;;;;;157.00;112.70;;;282.00;2278.40;;;;;;5151753;27;20034;-61
2022/11/15 07:04:01;;;;;;;177.55;111.28;;;282.10;2278.40;;;;;;5151812;27;20042;-58
2022/11/15 07:06:26;;;;;;;160.50;109.75;;;282.20;2278.40;;;;;;5151889;27;20058;-56
2022/11/15 07:08:52;;;;;;;150.98;106.60;;;282.30;2278.40;;;;;;5151778;27;20026;-57
2022/11/15 07:11:18;;;;;;;156.40;106.72;;;282.40;2278.40;;;;;;5151332;27;20025;-57
2022/11/15 07:13:44;;;;;;;135.30;93.85;;;282.50;2278.40;;;;;;5151590;27;20030;-60
2022/11/15 07:16:10;;;;;;;150.32;98.25;;;282.50;2278.40;;;;;;5151577;27;20076;-64
2022/11/15 07:18:40;;;;;;;171.85;142.18;;;282.50;2278.40;;;;;;5151458;27;20035;-57
2022/11/15 07:21:08;;;;;;;151.23;104.22;;;307.20;2304.00;;;;;;5151337;27;20451;-57
2022/11/15 07:23:37;;;;;;;148.45;102.93;;;282.50;2278.40;;;;;;5151373;27;20035;-57
2022/11/15 07:26:02;;;;;;;160.13;112.97;;;282.50;2278.40;;;;;;5151805;27;20050;-65
2022/11/15 07:28:28;;;;;;;177.70;132.02;;;282.50;2278.40;;;;;;5151414;27;20472;-57
2022/11/15 07:30:54;;;;;;;146.60;105.10;;;282.50;2278.40;;;;;;5147890;27;20102;-60
2022/11/15 07:33:20;;;;;;;162.95;114.90;;;307.40;2304.00;;;;;;5146161;27;20023;-59
2022/11/15 07:35:49;;;;;;;152.68;111.30;;;307.50;2304.00;;;;;;5151247;27;20037;-57
2022/11/15 07:38:15;;;;;;;148.68;103.18;;;307.60;2304.00;;;;;;5151497;27;20027;-59
2022/11/15 07:40:41;;;;;;;144.60;103.25;;;307.70;2304.00;;;;;;5151594;27;20023;-55
2022/11/15 07:43:08;;;;;;;128.45;93.72;;;308.00;2304.00;;;;;;5151124;27;20074;-56
2022/11/15 07:45:34;;;;;;;136.23;98.28;;;308.00;2304.00;;;;;;5151558;27;20023;-56
2022/11/15 07:48:00;;;;;;;138.20;97.43;;;308.10;2304.00;;;;;;5151572;27;20031;-55
2022/11/15 07:50:26;;;;;;;140.82;104.05;;;332.90;2329.60;;;;;;5151347;27;20023;-56
2022/11/15 07:52:57;;;;;;;140.07;99.45;;;333.00;2329.60;;;;;;5151420;27;20061;-59
2022/11/15 07:55:29;;;;;;;131.32;96.03;;;333.10;2329.60;;;;;;5151433;27;20023;-55
2022/11/15 07:58:05;;;;;;;134.63;99.17;;;333.20;2329.60;;;;;;5151548;27;20015;-60
2022/11/15 08:00:31;;;;;;;133.20;96.40;;;333.20;2329.60;;;;;;5151447;27;20030;-61
2022/11/15 08:03:12;;;;;;;132.73;95.97;;;333.30;2329.60;;;;;;5151043;27;20019;-60
2022/11/15 08:05:39;;;;;;;139.25;99.28;;;333.10;2329.60;;;;;;5150996;27;20031;-61
2022/11/15 08:08:05;;;;;;;137.20;97.38;;;333.20;2329.60;;;;;;5151303;27;20071;-59
2022/11/15 08:10:31;;;;;;;139.52;103.18;;;333.00;2329.60;;;;;;5151102;27;20035;-61
2022/11/15 08:13:07;;;;;;;139.35;103.03;;;333.00;2329.60;;;;;;5151214;27;20038;-60
2022/11/15 08:15:34;;;;;;;133.90;94.15;;;332.90;2329.60;;;;;;5151068;27;20076;-61
2022/11/15 08:18:04;;;;;;;133.70;95.82;;;333.20;2329.60;;;;;;5152576;27;20029;-55
2022/11/15 08:20:30;;;;;;;155.32;115.18;;;333.20;2329.60;;;;;;5154744;27;20426;-55
2022/11/15 08:23:01;;;;;;;146.15;98.43;;;333.10;2329.60;;;;;;5154871;27;20046;-55
2022/11/15 08:25:28;;;;;;;136.52;98.43;;;332.90;2329.60;;;;;;5154541;27;20033;-55
2022/11/15 08:27:56;;;;;;;134.65;91.95;;;333.10;2329.60;;;;;;5154922;27;20015;-55
2022/11/15 08:30:22;;;;;;;151.95;112.00;;;333.10;2329.60;;;;;;5154823;27;20027;-55
2022/11/15 08:32:49;;;;;;;134.35;96.22;;;333.10;2329.60;;;;;;5154417;27;20022;-61
2022/11/15 08:35:16;;;;;;;149.55;104.63;;;333.30;2329.60;;;;;;5151444;27;20042;-57
2022/11/15 08:37:41;;;;;;;130.27;94.63;;;333.30;2329.60;;;;;;5136768;27;20426;-59
2022/11/15 08:40:07;;;;;;;154.88;111.93;;;333.30;2329.60;;;;;;5133543;27;20027;-59
2022/11/15 08:42:33;;;;;;;119.97;87.25;;;333.40;2329.60;;;;;;5133608;27;20047;-61
2022/11/15 08:44:59;;;;;;;128.57;88.35;;;333.50;2329.60;;;;;;5133358;27;20057;-59
2022/11/15 08:47:26;;;;;;;164.55;118.47;;;333.40;2329.60;;;;;;5133726;27;20054;-54
2022/11/15 08:49:52;;;;;;;231.52;165.25;;;333.40;2329.60;;;;;;5134002;27;20027;-55
2022/11/15 08:52:18;;;;;;;137.75;98.53;;;333.40;2329.60;;;;;;5133524;27;20029;-55
2022/11/15 08:54:44;;;;;;;112.57;80.47;;;333.40;2329.60;;;;;;5133766;27;20026;-55
2022/11/15 08:57:10;;;;;;;122.30;87.15;;;333.70;2329.60;;;;;;5133387;27;20511;-55
2022/11/15 08:59:36;;;;;;;118.72;87.18;;;333.50;2329.60;;;;;;5133450;27;20030;-55
2022/11/15 09:02:03;;;;;;;122.95;88.30;;;333.60;2329.60;;;;;;5133404;27;20023;-54
2022/11/15 09:04:29;;;;;;;131.93;95.70;;;333.60;2329.60;;;;;;5133090;27;20054;-62
2022/11/15 09:06:55;;;;;;;133.20;94.25;;;333.60;2329.60;;;;;;5133702;27;20453;-61
2022/11/15 09:09:20;;;;;;;132.68;100.85;;;333.70;2329.60;;;;;;5133035;27;20384;-59
2022/11/15 09:11:46;;;;;;;151.30;106.03;;;333.70;2329.60;;;;;;5133058;27;20148;-61
2022/11/15 09:14:12;;;;;;;137.40;105.72;;;333.30;2329.60;;;;;;5133108;27;20030;-57
2022/11/15 09:16:38;;;;;;;148.77;110.50;;;333.20;2329.60;;;;;;5132868;27;20051;-60
2022/11/15 09:19:04;;;;;;;151.60;109.75;;;333.20;2329.60;;;;;;5132619;27;20051;-56
2022/11/15 09:21:30;;;;;;;165.57;119.25;;;333.60;2329.60;;;;;;5132950;27;20031;-53
2022/11/15 09:23:56;;;;;;;166.57;121.18;;;358.50;2329.60;;;;;;5140280;27;20031;-57
2022/11/15 09:26:22;;;;;;;173.32;122.68;;;358.40;2329.60;;;;;;5132420;27;20061;-61
2022/11/15 09:28:48;;;;;;;183.93;136.25;;;358.60;2329.60;;;;;;5131190;27;20023;-62
2022/11/15 09:31:13;;;;;;;179.77;134.07;;;358.50;2329.60;;;;;;5132324;27;20019;-55
2022/11/15 09:33:39;;;;;;;167.32;124.72;;;358.50;2329.60;;;;;;5132074;27;20496;-60
2022/11/15 09:36:07;;;;;;;154.80;112.28;;;358.50;2329.60;;;;;;5133515;27;20088;-57
2022/11/15 09:38:34;;;;;;;143.13;108.10;;;358.70;2329.60;;;;;;5153375;27;20031;-61
2022/11/15 09:41:13;;;;;;;167.77;122.10;;;358.90;2329.60;;;;;;5153170;27;20033;-60
2022/11/15 09:43:53;;;;;;;174.57;132.05;;;358.80;2329.60;;;;;;5152827;27;20488;-61
2022/11/15 09:46:38;;;;;;;190.77;139.45;;;358.70;2329.60;;;;;;5152980;27;20097;-61
2022/11/15 09:49:04;;;;;;;214.88;164.30;;;358.50;2329.60;;;;;;5153364;27;20015;-54
2022/11/15 09:51:32;;;;;;;210.80;160.40;;;358.50;2329.60;;;;;;5153027;27;20031;-60
2022/11/15 09:54:04;;;;;;;197.27;151.90;;;358.50;2329.60;;;;;;5153030;27;20018;-55
2022/11/15 09:56:31;;;;;;;216.23;161.52;;;358.40;2329.60;;;;;;5152872;27;20030;-55
2022/11/15 09:59:23;;;;;;;201.90;152.65;;;358.40;2329.60;;;;;;5152935;27;20033;-55
2022/11/15 10:02:05;;;;;;;213.30;165.68;;;358.60;2329.60;;;;;;5152742;27;20015;-55
2022/11/15 10:04:31;;;;;;;226.10;180.38;;;358.70;2329.60;;;;;;5152899;27;20083;-61
2022/11/15 10:07:18;;;;;;;232.07;171.20;;;358.60;2329.60;;;;;;5152816;27;20091;-57
2022/11/15 10:10:01;;;;;;;213.70;165.75;;;358.50;2329.60;;;;;;5152652;27;20422;-62
2022/11/15 10:12:28;;;;;;;222.55;166.57;;;358.60;2329.60;;;;;;5152961;27;20035;-62
2022/11/15 10:15:11;;;;;;;226.55;180.80;;;358.90;2329.60;;;;;;5152769;27;20071;-57
2022/11/15 10:18:10;;;;;;;236.52;187.75;;;358.80;2329.60;;;;;;5152560;27;20034;-62
2022/11/15 10:20:58;;;;;;;250.88;188.23;;;358.80;2329.60;;;;;;5152463;27;20023;-60
2022/11/15 10:23:24;;;;;;;242.35;183.38;;;384.10;2329.60;;;;;;5152672;27;20034;-61
2022/11/15 10:25:59;;;;;;;236.43;182.88;;;384.00;2329.60;;;;;;5152138;27;20022;-59
2022/11/15 10:28:29;;;;;;;206.32;161.70;;;384.30;2329.60;;;;;;5152449;27;20023;-62
2022/11/15 10:30:57;;;;;;;202.10;150.23;;;384.40;2329.60;;;;;;5152694;27;20042;-58
2022/11/15 10:33:33;;;;;;;202.20;153.80;;;384.20;2329.60;;;;;;5152697;27;20027;-61
2022/11/15 10:36:08;;;;;;;153.45;114.00;;;384.60;2329.60;;;;;;5152374;27;20025;-56
2022/11/15 10:38:51;;;;;;;171.77;129.00;;;384.20;2329.60;;;;;;5152303;27;20026;-54
2022/11/15 10:41:27;;;;;;;161.43;118.35;;;384.10;2329.60;;;;;;5151807;27;20038;-55
2022/11/15 10:44:06;;;;;;;159.95;120.28;;;384.70;2329.60;;;;;;5151739;27;20050;-56
2022/11/15 10:46:40;;;;;;;168.55;115.85;;;384.70;2329.60;;;;;;5152137;27;20396;-55
2022/11/15 10:49:17;;;;;;;138.45;104.13;;;384.60;2329.60;;;;;;5151794;27;20499;-58
2022/11/15 10:51:49;;;;;;;134.43;95.80;;;384.70;2329.60;;;;;;5152018;27;20547;-61
2022/11/15 10:54:29;;;;;;;142.05;103.43;;;384.70;2329.60;;;;;;5152142;27;20383;-60
2022/11/15 10:56:58;;;;;;;132.13;98.70;;;384.60;2329.60;;;;;;5152158;27;20225;-61
2022/11/15 10:59:30;;;;;;;131.23;93.45;;;384.10;2329.60;;;;;;5152200;27;20014;-59
2022/11/15 11:01:56;;;;;;;149.80;104.07;;;384.10;2329.60;;;;;;5151740;27;20031;-55
2022/11/15 11:04:22;;;;;;;131.70;95.88;;;384.40;2329.60;;;;;;5151735;27;20030;-62
2022/11/15 11:06:57;;;;;;;129.05;92.30;;;384.10;2329.60;;;;;;5151623;27;20046;-57
2022/11/15 11:09:36;;;;;;;115.28;86.20;;;384.10;2329.60;;;;;;5151550;27;20074;-63
2022/11/15 11:12:04;;;;;;;122.30;87.32;;;384.40;2329.60;;;;;;5151814;27;20468;-61
2022/11/15 11:14:38;;;;;;;115.95;83.78;;;384.10;2329.60;;;;;;5151294;27;20031;-57
2022/11/15 11:17:35;;;;;;;115.55;86.00;;;359.30;2329.60;;;;;;5151774;27;20097;-58
2022/11/15 11:20:36;;;;;;;122.75;84.40;;;359.30;2329.60;;;;;;5151449;27;20019;-62
2022/11/15 11:23:26;;;;;;;96.82;69.55;;;359.30;2329.60;;;;;;5151551;27;20041;-60
2022/11/15 11:26:29;;;;;;;120.05;86.85;;;359.30;2329.60;;;;;;5151582;27;20023;-56
2022/11/15 11:29:12;;;;;;;109.05;78.00;;;384.10;2329.60;;;;;;5151804;27;20027;-62
2022/11/15 11:31:41;;;;;;;116.20;86.72;;;384.10;2329.60;;;;;;5151277;27;20014;-59
2022/11/15 11:34:23;;;;;;;108.72;81.05;;;384.10;2329.60;;;;;;5151488;27;20019;-59
2022/11/15 11:36:57;;;;;;;104.22;77.13;;;384.40;2329.60;;;;;;5151167;27;20050;-62
2022/11/15 11:39:34;;;;;;;100.28;74.82;;;384.70;2329.60;;;;;;5151311;27;20364;-65
2022/11/15 11:42:28;;;;;;;137.65;102.90;;;384.40;2329.60;;;;;;5150995;27;20499;-61
2022/11/15 11:45:09;;;;;;;96.07;70.22;;;384.30;2329.60;;;;;;5151727;27;20031;-57
2022/11/15 11:47:40;;;;;;;100.70;74.75;;;384.30;2329.60;;;;;;5151666;27;20023;-61
2022/11/15 11:50:19;;;;;;;121.68;90.43;;;384.10;2329.60;;;;;;5151126;27;20468;-56
2022/11/15 11:52:56;;;;;;;129.82;95.10;;;384.00;2329.60;;;;;;5153071;27;20022;-56
2022/11/15 11:55:47;;;;;;;135.18;97.65;;;384.10;2329.60;;;;;;5155572;27;20034;-55
2022/11/15 11:58:21;;;;;;;110.25;84.90;;;359.30;2329.60;;;;;;5155324;27;20019;-55
2022/11/15 12:00:55;;;;;;;132.45;88.53;;;384.10;2329.60;;;;;;5155163;27;20029;-56
2022/11/15 12:03:26;;;;;;;152.70;104.28;;;384.20;2329.60;;;;;;5155035;27;20031;-61
2022/11/15 12:06:00;;;;;;;115.28;82.88;;;384.10;2329.60;;;;;;5155238;27;20425;-62
2022/11/15 12:09:11;;;;;;;109.18;81.30;;;384.40;2329.60;;;;;;5155324;27;20465;-57
2022/11/15 12:11:56;;;;;;;124.55;83.90;;;384.40;2329.60;;;;;;5050784;28;20029;-61
2022/11/15 12:14:28;;;;;;;93.32;68.38;;;384.10;2329.60;;;;;;5050912;28;20040;-59
2022/11/15 12:16:54;;;;;;;98.40;74.80;;;384.20;2329.60;;;;;;5051101;28;20059;-62